PWSweather.com
Personal Weather Stations
Station Observations
VPOKROGLO
Kal Nad Kanalom, PrimorskaSI

Kal Nad KanalomPrimorskaSI

Lat: 46.072, Lon: 13.734

Elevation: 2526

Station Type: WS-2355

http://www.okroglovreme.com

Latest ConditionsUpdated 7:30:02 PM GMT+01:01 Thursday, Mar 5, 2015
Currently Today's Max Today's Min Today's Average
Temperature 37.6°F3.1°C 43.5°F6.4°C 33.6°F0.9°C 37.9°F3.3°C
Dew Point 16.0°F-8.9°C 28.4°F-2.0°C 15.7°F-9.1°C 21.1°F-6.1°C
Winds 8.5 mph N13.7 kmh N 13.1 mph NE21.1 kmh NE - 7.0 mph 11.3 kmh
Wind Gusts 11.2 mph18.0 kmh 19.0 mph30.6 kmh - -
Humidity 41% 81% 36% 53%
Pressure 30.11 in1019.6 mb 30.11 in1019.6 mb 30.06 in1017.9 mb -
Hour Temp Dew Point Humidity Winds Wind Gusts Pressure Precip Precip Rate Daily Precip Total
07:30 PM 37.6°F3.1°C 16.0°F-8.9°C 41% 8.5 mph N13.7 kmh N 11.2 mph18.0 kmh 30.11 in1019.6 mb 0.00 in0.0 mm 0.00 in/hr0.0 mm/hr 0.02 in0.5 mm
07:15 PM 37.6°F3.1°C 16.0°F-8.9°C 41% 10.4 mph N16.7 kmh N 13.0 mph20.9 kmh 30.10 in1019.3 mb 0.00 in0.0 mm 0.00 in/hr0.0 mm/hr 0.02 in0.5 mm
07:00 PM 37.9°F3.3°C 15.7°F-9.1°C 40% 8.6 mph NE13.8 kmh NE 9.2 mph14.8 kmh 30.10 in1019.3 mb 0.00 in0.0 mm 0.00 in/hr0.0 mm/hr 0.02 in0.5 mm
06:45 PM 37.9°F3.3°C 15.7°F-9.1°C 40% 7.7 mph N12.4 kmh N 10.3 mph16.6 kmh 30.10 in1019.3 mb 0.00 in0.0 mm 0.00 in/hr0.0 mm/hr 0.02 in0.5 mm
06:30 PM 38.3°F3.5°C 16.1°F-8.8°C 40% 7.9 mph NNE12.7 kmh NNE 11.9 mph19.2 kmh 30.09 in1019.0 mb 0.00 in0.0 mm 0.00 in/hr0.0 mm/hr 0.02 in0.5 mm
06:15 PM 38.8°F3.8°C 16.0°F-8.9°C 39% 6.9 mph NE11.1 kmh NE 14.3 mph23.0 kmh 30.09 in1019.0 mb 0.00 in0.0 mm 0.00 in/hr0.0 mm/hr 0.02 in0.5 mm
06:00 PM 39.4°F4.1°C 15.8°F-9.0°C 38% 13.1 mph NE21.1 kmh NE 15.9 mph25.6 kmh 30.08 in1018.6 mb 0.00 in0.0 mm 0.00 in/hr0.0 mm/hr 0.02 in0.5 mm
05:45 PM 40.1°F4.5°C 15.9°F-8.9°C 37% 9.1 mph NW14.6 kmh NW 10.3 mph16.6 kmh 30.08 in1018.6 mb 0.00 in0.0 mm 0.00 in/hr0.0 mm/hr 0.02 in0.5 mm
05:30 PM 40.6°F4.8°C 16.4°F-8.7°C 37% 12.4 mph NNE20.0 kmh NNE 17.0 mph27.4 kmh 30.09 in1019.0 mb 0.00 in0.0 mm 0.00 in/hr0.0 mm/hr 0.02 in0.5 mm
05:15 PM 40.8°F4.9°C 16.5°F-8.6°C 37% 5.7 mph NE9.2 kmh NE 16.3 mph26.2 kmh 30.09 in1019.0 mb 0.00 in0.0 mm 0.00 in/hr0.0 mm/hr 0.02 in0.5 mm
05:00 PM 41.2°F5.1°C 16.8°F-8.4°C 37% 5.1 mph NNE8.2 kmh NNE 5.1 mph8.2 kmh 30.09 in1019.0 mb 0.00 in0.0 mm 0.00 in/hr0.0 mm/hr 0.02 in0.5 mm
04:45 PM 41.7°F5.4°C 16.7°F-8.5°C 36% 5.6 mph N9.0 kmh N 12.5 mph20.1 kmh 30.08 in1018.6 mb 0.00 in0.0 mm 0.00 in/hr0.0 mm/hr 0.02 in0.5 mm
04:30 PM 42.3°F5.7°C 17.2°F-8.2°C 36% 11.4 mph NNW18.3 kmh NNW 19.0 mph30.6 kmh 30.09 in1019.0 mb 0.00 in0.0 mm 0.00 in/hr0.0 mm/hr 0.02 in0.5 mm
04:15 PM 42.6°F5.9°C 17.5°F-8.1°C 36% 9.3 mph N15.0 kmh N 14.5 mph23.3 kmh 30.07 in1018.3 mb 0.00 in0.0 mm 0.00 in/hr0.0 mm/hr 0.02 in0.5 mm
04:00 PM 42.6°F5.9°C 17.5°F-8.1°C 36% 8.3 mph N13.4 kmh N 13.6 mph21.9 kmh 30.07 in1018.3 mb 0.00 in0.0 mm 0.00 in/hr0.0 mm/hr 0.02 in0.5 mm
03:45 PM 43.0°F6.1°C 17.8°F-7.9°C 36% 6.3 mph NE10.1 kmh NE 8.3 mph13.4 kmh 30.07 in1018.3 mb 0.00 in0.0 mm 0.00 in/hr0.0 mm/hr 0.02 in0.5 mm
03:30 PM 43.0°F6.1°C 17.8°F-7.9°C 36% 8.7 mph NE14.0 kmh NE 12.5 mph20.1 kmh 30.07 in1018.3 mb 0.00 in0.0 mm 0.00 in/hr0.0 mm/hr 0.02 in0.5 mm
03:15 PM 43.2°F6.2°C 18.0°F-7.8°C 36% 8.6 mph NNE13.8 kmh NNE 10.5 mph16.9 kmh 30.07 in1018.3 mb 0.00 in0.0 mm 0.00 in/hr0.0 mm/hr 0.02 in0.5 mm
03:00 PM 43.3°F6.3°C 18.1°F-7.7°C 36% 8.6 mph N13.8 kmh N 11.9 mph19.2 kmh 30.06 in1017.9 mb 0.00 in0.0 mm 0.00 in/hr0.0 mm/hr 0.02 in0.5 mm
02:45 PM 43.5°F6.4°C 18.3°F-7.6°C 36% 7.0 mph NE11.3 kmh NE 12.3 mph19.8 kmh 30.06 in1017.9 mb 0.00 in0.0 mm 0.00 in/hr0.0 mm/hr 0.02 in0.5 mm
02:30 PM 43.5°F6.4°C 18.9°F-7.3°C 37% 6.2 mph N10.0 kmh N 11.0 mph17.7 kmh 30.06 in1017.9 mb 0.00 in0.0 mm 0.00 in/hr0.0 mm/hr 0.02 in0.5 mm
02:15 PM 43.5°F6.4°C 18.9°F-7.3°C 37% 5.5 mph ENE8.9 kmh ENE 11.0 mph17.7 kmh 30.06 in1017.9 mb 0.00 in0.0 mm 0.00 in/hr0.0 mm/hr 0.02 in0.5 mm
02:00 PM 43.5°F6.4°C 18.3°F-7.6°C 36% 9.2 mph NE14.8 kmh NE 18.1 mph29.1 kmh 30.06 in1017.9 mb 0.00 in0.0 mm 0.00 in/hr0.0 mm/hr 0.02 in0.5 mm
01:45 PM 43.5°F6.4°C 19.6°F-6.9°C 38% 12.2 mph N19.6 kmh N 13.2 mph21.2 kmh 30.06 in1017.9 mb 0.00 in0.0 mm 0.00 in/hr0.0 mm/hr 0.02 in0.5 mm
01:30 PM 43.3°F6.3°C 19.4°F-7.0°C 38% 10.2 mph N16.4 kmh N 13.2 mph21.2 kmh 30.06 in1017.9 mb 0.00 in0.0 mm 0.00 in/hr0.0 mm/hr 0.02 in0.5 mm
01:15 PM 43.3°F6.3°C 20.0°F-6.7°C 39% 6.9 mph NNE11.1 kmh NNE 15.0 mph24.1 kmh 30.06 in1017.9 mb 0.00 in0.0 mm 0.00 in/hr0.0 mm/hr 0.02 in0.5 mm
01:00 PM 43.0°F6.1°C 20.3°F-6.5°C 40% 7.0 mph N11.3 kmh N 14.5 mph23.3 kmh 30.07 in1018.3 mb 0.00 in0.0 mm 0.00 in/hr0.0 mm/hr 0.02 in0.5 mm
12:45 PM 42.6°F5.9°C 20.5°F-6.4°C 41% 8.7 mph NE14.0 kmh NE 14.1 mph22.7 kmh 30.07 in1018.3 mb 0.00 in0.0 mm 0.00 in/hr0.0 mm/hr 0.02 in0.5 mm
12:30 PM 41.9°F5.5°C 20.4°F-6.4°C 42% 6.7 mph NNE10.8 kmh NNE 10.1 mph16.3 kmh 30.07 in1018.3 mb 0.00 in0.0 mm 0.00 in/hr0.0 mm/hr 0.02 in0.5 mm
12:15 PM 41.7°F5.4°C 20.8°F-6.2°C 43% 4.6 mph N7.4 kmh N 12.5 mph20.1 kmh 30.08 in1018.6 mb 0.00 in0.0 mm 0.00 in/hr0.0 mm/hr 0.02 in0.5 mm
12:00 PM 41.2°F5.1°C 20.9°F-6.2°C 44% 5.6 mph NE9.0 kmh NE 9.2 mph14.8 kmh 30.09 in1019.0 mb 0.00 in0.0 mm 0.00 in/hr0.0 mm/hr 0.02 in0.5 mm
11:45 AM 40.5°F4.7°C 20.2°F-6.6°C 44% 6.0 mph N9.7 kmh N 7.6 mph12.2 kmh 30.08 in1018.6 mb 0.00 in0.0 mm 0.00 in/hr0.0 mm/hr 0.02 in0.5 mm
11:30 AM 39.9°F4.4°C 19.7°F-6.8°C 44% 6.6 mph N10.6 kmh N 9.8 mph15.8 kmh 30.10 in1019.3 mb 0.00 in0.0 mm 0.00 in/hr0.0 mm/hr 0.02 in0.5 mm
11:15 AM 39.4°F4.1°C 19.8°F-6.8°C 45% 7.7 mph NNW12.4 kmh NNW 9.8 mph15.8 kmh 30.09 in1019.0 mb 0.00 in0.0 mm 0.00 in/hr0.0 mm/hr 0.02 in0.5 mm
11:00 AM 39.0°F3.9°C 19.4°F-7.0°C 45% 8.4 mph N13.5 kmh N 17.0 mph27.4 kmh 30.09 in1019.0 mb 0.00 in0.0 mm 0.00 in/hr0.0 mm/hr 0.02 in0.5 mm
10:45 AM 38.8°F3.8°C 19.3°F-7.1°C 45% 10.9 mph NNE17.5 kmh NNE 19.0 mph30.6 kmh 30.10 in1019.3 mb 0.00 in0.0 mm 0.00 in/hr0.0 mm/hr 0.02 in0.5 mm
10:30 AM 38.7°F3.7°C 19.6°F-6.9°C 46% 8.9 mph NNE14.3 kmh NNE 11.4 mph18.3 kmh 30.09 in1019.0 mb 0.00 in0.0 mm 0.00 in/hr0.0 mm/hr 0.02 in0.5 mm
10:15 AM 38.5°F3.6°C 19.5°F-6.9°C 46% 8.5 mph N13.7 kmh N 14.5 mph23.3 kmh 30.09 in1019.0 mb 0.00 in0.0 mm 0.00 in/hr0.0 mm/hr 0.02 in0.5 mm
10:00 AM 37.9°F3.3°C 19.5°F-6.9°C 47% 8.6 mph N13.8 kmh N 9.6 mph15.4 kmh 30.08 in1018.6 mb 0.00 in0.0 mm 0.00 in/hr0.0 mm/hr 0.02 in0.5 mm
09:50 AM 37.8°F3.2°C 19.3°F-7.1°C 47% 8.1 mph NNE13.0 kmh NNE 12.3 mph19.8 kmh 30.08 in1018.6 mb 0.00 in0.0 mm 0.00 in/hr0.0 mm/hr 0.02 in0.5 mm
09:30 AM 37.2°F2.9°C 19.8°F-6.8°C 49% 10.7 mph N17.2 kmh N 10.7 mph17.2 kmh 30.09 in1019.0 mb 0.00 in0.0 mm 0.00 in/hr0.0 mm/hr 0.02 in0.5 mm
09:15 AM 37.2°F2.9°C 19.8°F-6.8°C 49% 11.2 mph N18.0 kmh N 17.4 mph28.0 kmh 30.08 in1018.6 mb 0.00 in0.0 mm 0.00 in/hr0.0 mm/hr 0.02 in0.5 mm
09:00 AM 37.0°F2.8°C 20.1°F-6.6°C 50% 12.5 mph N20.1 kmh N 17.2 mph27.7 kmh 30.09 in1019.0 mb 0.00 in0.0 mm 0.00 in/hr0.0 mm/hr 0.02 in0.5 mm
08:45 AM 36.5°F2.5°C 20.1°F-6.6°C 51% 10.4 mph NE16.7 kmh NE 13.4 mph21.6 kmh 30.08 in1018.6 mb 0.00 in0.0 mm 0.00 in/hr0.0 mm/hr 0.02 in0.5 mm
08:30 AM 36.1°F2.3°C 20.2°F-6.6°C 52% 8.5 mph N13.7 kmh N 9.2 mph14.8 kmh 30.08 in1018.6 mb 0.00 in0.0 mm 0.00 in/hr0.0 mm/hr 0.02 in0.5 mm
08:15 AM 35.8°F2.1°C 19.9°F-6.7°C 52% 8.1 mph N13.0 kmh N 12.3 mph19.8 kmh 30.08 in1018.6 mb 0.00 in0.0 mm 0.00 in/hr0.0 mm/hr 0.02 in0.5 mm
08:00 AM 35.8°F2.1°C 20.3°F-6.5°C 53% 6.3 mph N10.1 kmh N 11.6 mph18.7 kmh 30.08 in1018.6 mb 0.00 in0.0 mm 0.00 in/hr0.0 mm/hr 0.02 in0.5 mm
07:45 AM 35.6°F2.0°C 20.6°F-6.3°C 54% 6.0 mph NNE9.7 kmh NNE 6.7 mph10.8 kmh 30.08 in1018.6 mb 0.00 in0.0 mm 0.00 in/hr0.0 mm/hr 0.02 in0.5 mm
07:30 AM 35.4°F1.9°C 20.8°F-6.2°C 55% 8.0 mph NNE12.9 kmh NNE 12.8 mph20.6 kmh 30.08 in1018.6 mb 0.00 in0.0 mm 0.00 in/hr0.0 mm/hr 0.02 in0.5 mm
07:15 AM 35.2°F1.8°C 21.5°F-5.8°C 57% 7.3 mph NNE11.7 kmh NNE 9.4 mph15.1 kmh 30.08 in1018.6 mb 0.00 in0.0 mm 0.00 in/hr0.0 mm/hr 0.02 in0.5 mm
07:00 AM 35.2°F1.8°C 21.9°F-5.6°C 58% 6.6 mph NNE10.6 kmh NNE 8.5 mph13.7 kmh 30.08 in1018.6 mb 0.00 in0.0 mm 0.00 in/hr0.0 mm/hr 0.02 in0.5 mm
06:45 AM 34.9°F1.6°C 22.4°F-5.3°C 60% 7.9 mph NNE12.7 kmh NNE 12.3 mph19.8 kmh 30.08 in1018.6 mb 0.00 in0.0 mm 0.00 in/hr0.0 mm/hr 0.02 in0.5 mm
06:30 AM 34.9°F1.6°C 22.4°F-5.3°C 60% 9.4 mph NNE15.1 kmh NNE 11.9 mph19.2 kmh 30.09 in1019.0 mb 0.00 in0.0 mm 0.00 in/hr0.0 mm/hr 0.02 in0.5 mm
06:15 AM 34.9°F1.6°C 22.4°F-5.3°C 60% 8.4 mph NNE13.5 kmh NNE 10.3 mph16.6 kmh 30.09 in1019.0 mb 0.00 in0.0 mm 0.00 in/hr0.0 mm/hr 0.02 in0.5 mm
06:00 AM 34.9°F1.6°C 23.2°F-4.9°C 62% 4.7 mph NNE7.6 kmh NNE 10.3 mph16.6 kmh 30.09 in1019.0 mb 0.00 in0.0 mm 0.00 in/hr0.0 mm/hr 0.02 in0.5 mm
05:45 AM 34.9°F1.6°C 23.2°F-4.9°C 62% 7.0 mph NNE11.3 kmh NNE 7.6 mph12.2 kmh 30.09 in1019.0 mb 0.00 in0.0 mm 0.00 in/hr0.0 mm/hr 0.02 in0.5 mm
05:30 AM 34.9°F1.6°C 23.2°F-4.9°C 62% 3.8 mph NNE6.1 kmh NNE 7.6 mph12.2 kmh 30.09 in1019.0 mb 0.00 in0.0 mm 0.00 in/hr0.0 mm/hr 0.02 in0.5 mm
05:15 AM 34.9°F1.6°C 23.6°F-4.7°C 63% 3.0 mph NNE4.8 kmh NNE 4.5 mph7.2 kmh 30.09 in1019.0 mb 0.00 in0.0 mm 0.00 in/hr0.0 mm/hr 0.02 in0.5 mm
05:00 AM 34.9°F1.6°C 23.9°F-4.5°C 64% 3.9 mph NNE6.3 kmh NNE 5.8 mph9.3 kmh 30.09 in1019.0 mb 0.00 in0.0 mm 0.00 in/hr0.0 mm/hr 0.02 in0.5 mm
04:45 AM 34.5°F1.4°C 24.0°F-4.4°C 65% 6.1 mph NNE9.8 kmh NNE 10.5 mph16.9 kmh 30.08 in1018.6 mb 0.00 in0.0 mm 0.00 in/hr0.0 mm/hr 0.02 in0.5 mm
04:30 AM 34.3°F1.3°C 24.5°F-4.2°C 67% 4.3 mph NNE6.9 kmh NNE 9.6 mph15.4 kmh 30.07 in1018.3 mb 0.00 in0.0 mm 0.00 in/hr0.0 mm/hr 0.02 in0.5 mm
04:15 AM 34.2°F1.2°C 24.7°F-4.1°C 68% 4.6 mph NNE7.4 kmh NNE 12.8 mph20.6 kmh 30.07 in1018.3 mb 0.00 in0.0 mm 0.00 in/hr0.0 mm/hr 0.02 in0.5 mm
04:00 AM 34.3°F1.3°C 24.9°F-3.9°C 68% 8.0 mph NNE12.9 kmh NNE 11.2 mph18.0 kmh 30.07 in1018.3 mb 0.00 in0.0 mm 0.00 in/hr0.0 mm/hr 0.02 in0.5 mm
03:45 AM 34.2°F1.2°C 25.0°F-3.9°C 69% 5.8 mph NNE9.3 kmh NNE 9.2 mph14.8 kmh 30.07 in1018.3 mb 0.00 in0.0 mm 0.00 in/hr0.0 mm/hr 0.02 in0.5 mm
03:30 AM 34.2°F1.2°C 25.7°F-3.5°C 71% 4.2 mph NNE6.8 kmh NNE 8.1 mph13.0 kmh 30.07 in1018.3 mb 0.00 in0.0 mm 0.00 in/hr0.0 mm/hr 0.02 in0.5 mm
03:15 AM 34.2°F1.2°C 25.7°F-3.5°C 71% 6.8 mph NNE10.9 kmh NNE 10.1 mph16.3 kmh 30.07 in1018.3 mb 0.00 in0.0 mm 0.00 in/hr0.0 mm/hr 0.02 in0.5 mm
03:00 AM 34.0°F1.1°C 26.2°F-3.2°C 73% 2.5 mph NNE4.0 kmh NNE 4.5 mph7.2 kmh 30.07 in1018.3 mb 0.00 in0.0 mm 0.00 in/hr0.0 mm/hr 0.02 in0.5 mm
02:45 AM 33.8°F1.0°C 26.4°F-3.1°C 74% 3.5 mph NNE5.6 kmh NNE 5.8 mph9.3 kmh 30.09 in1019.0 mb 0.00 in0.0 mm 0.00 in/hr0.0 mm/hr 0.02 in0.5 mm
02:30 AM 33.6°F0.9°C 26.9°F-2.8°C 76% 6.0 mph NNE9.7 kmh NNE 11.6 mph18.7 kmh 30.09 in1019.0 mb 0.00 in0.0 mm 0.00 in/hr0.0 mm/hr 0.02 in0.5 mm
02:15 AM 33.6°F0.9°C 26.9°F-2.8°C 76% 3.3 mph NNE5.3 kmh NNE 5.6 mph9.0 kmh 30.09 in1019.0 mb 0.00 in0.0 mm 0.00 in/hr0.0 mm/hr 0.02 in0.5 mm
02:00 AM 33.6°F0.9°C 27.2°F-2.7°C 77% 5.7 mph NNE9.2 kmh NNE 10.5 mph16.9 kmh 30.10 in1019.3 mb 0.00 in0.0 mm 0.00 in/hr0.0 mm/hr 0.02 in0.5 mm
01:45 AM 33.6°F0.9°C 27.5°F-2.5°C 78% 4.6 mph NNE7.4 kmh NNE 10.7 mph17.2 kmh 30.11 in1019.6 mb 0.00 in0.0 mm 0.00 in/hr0.0 mm/hr 0.02 in0.5 mm
01:30 AM 33.6°F0.9°C 27.5°F-2.5°C 78% 5.5 mph NNE8.9 kmh NNE 8.5 mph13.7 kmh 30.11 in1019.6 mb 0.00 in0.0 mm 0.00 in/hr0.0 mm/hr 0.02 in0.5 mm
01:15 AM 33.6°F0.9°C 27.5°F-2.5°C 78% 2.4 mph NNE3.9 kmh NNE 4.5 mph7.2 kmh 30.11 in1019.6 mb 0.00 in0.0 mm 0.00 in/hr0.0 mm/hr 0.02 in0.5 mm
01:00 AM 33.6°F0.9°C 27.8°F-2.3°C 79% 4.3 mph NNE6.9 kmh NNE 6.9 mph11.1 kmh 30.11 in1019.6 mb 0.00 in0.0 mm 0.00 in/hr0.0 mm/hr 0.02 in0.5 mm
12:45 AM 33.6°F0.9°C 27.8°F-2.3°C 79% 2.4 mph NNE3.9 kmh NNE 5.6 mph9.0 kmh 30.10 in1019.3 mb 0.00 in0.0 mm 0.00 in/hr0.0 mm/hr 0.02 in0.5 mm
12:30 AM 33.6°F0.9°C 28.1°F-2.2°C 80% 2.8 mph NNE4.5 kmh NNE 6.3 mph10.1 kmh 30.10 in1019.3 mb 0.00 in0.0 mm 0.00 in/hr0.0 mm/hr 0.02 in0.5 mm
12:15 AM 33.6°F0.9°C 28.1°F-2.2°C 80% 1.1 mph NNE1.8 kmh NNE 5.8 mph9.3 kmh 30.11 in1019.6 mb 0.02 in0.5 mm 0.00 in/hr0.0 mm/hr 0.02 in0.5 mm
12:00 AM 33.6°F0.9°C 28.4°F-2.0°C 81% 2.8 mph S4.5 kmh S 4.3 mph6.9 kmh 30.11 in1019.6 mb 0.02 in0.5 mm 0.00 in/hr0.0 mm/hr 0.02 in0.5 mm